Accueil
METAR-TAF:

METAR-TAF

Aéroports :

Aéroport de Paris-Orly

Paris-Orly, France

latitude: 48-44N, longitude: 002-24E, altitude: 89 m

Observation

Le bulletin a été fait il y a 39 minutes, à 22:30 UTC
Vent 4 kt de nord
Température 3°C
Humidité 70%
Pression 1021 hPa
Visibilité 10 km ou plus
pas de nuages en-dessous de 1500 mètres et pas de cumulonimbus.

METAR: LFPO 082230Z 35004KT CAVOK 03/M02 Q1021 NOSIG

Heure: 00:09 (23:09 UTC)

Prévision

Le bulletin a été fait il y a 6 heures et 9 minutes, à 17:00 UTC
Prévision valable du 08 à 18 UTC au 09 à 24 UTC
Vent 6 kt de nord/nord-est
Visibilité 10 km ou plus
pas de nuages en-dessous de 1500 mètres et pas de cumulonimbus.

TAF: LFPO 081700Z 0818/0924 02006KT CAVOK

Observations et prévisions météorologiques de plus de 4000 aéroports (messages METAR et TAF).

Les stations disponibles sont représentées par des disques jaunes et rouges sur la carte.

Passer la souris dessus pour voir le nom de la station.

Cliquer dessus pour voir les observations et prévisions météorologiques.

Pour changer de carte: cliquez sur les boutons verts avec une croix noire pour zoomer, sur le bouton vert avec un tiret pour effectuer un zoom arrière, ou sur les flèches vertes pour les cartes adjacentes.


METAR-TAF: